Terminal Aerodrome Forecast
Issued by NWS

Current Version | Previous Version | Text Only | Print | Product List | Glossary On
Versions: 1 2 3 4 5 6 7 8 9 10 11 12 13 14 15 16 17 18 19 20
000
FTUS43 KBIS 292356 AAA
TAFDIK
TAF AMD
KDIK 292356Z 3000/3024 25012G20KT P6SM SCT080
     FM300200 18005KT P6SM SCT130
     FM301000 18008KT P6SM BKN110
     FM301800 17013KT P6SM BKN090=

USA.gov is the U.S. government's official web portal to all federal, state and local government web resources and services.